createdAt,value
2022-12-22T00:01:14.533Z,37.40
2022-12-22T00:03:59.503Z,37.67
2022-12-22T00:06:44.626Z,38.50
2022-12-22T00:09:29.498Z,37.07
2022-12-22T00:12:14.839Z,40.67
2022-12-22T00:15:00.781Z,36.37
2022-12-22T00:17:47.186Z,38.17
2022-12-22T00:20:38.532Z,36.67
2022-12-22T00:23:23.956Z,44.20
2022-12-22T00:26:08.933Z,36.43
2022-12-22T00:28:54.845Z,40.53
2022-12-22T00:31:41.768Z,42.90
2022-12-22T00:34:35.199Z,38.67
2022-12-22T00:37:20.056Z,41.53
2022-12-22T00:40:05.495Z,46.83
2022-12-22T00:42:50.717Z,43.30
2022-12-22T00:45:35.591Z,48.97
2022-12-22T00:48:21.180Z,44.63
2022-12-22T00:51:06.095Z,41.37
2022-12-22T00:53:50.903Z,41.57
2022-12-22T00:56:36.237Z,38.97
2022-12-22T00:59:21.688Z,40.20
2022-12-22T01:02:06.674Z,40.83
2022-12-22T01:04:51.907Z,53.60
2022-12-22T01:07:40.763Z,42.40
2022-12-22T01:10:31.645Z,56.27
2022-12-22T01:13:17.031Z,45.50
2022-12-22T01:16:02.043Z,46.10
2022-12-22T01:18:47.084Z,52.87
2022-12-22T01:21:39.537Z,47.27
2022-12-22T01:24:30.925Z,46.70
2022-12-22T01:27:16.450Z,45.17
2022-12-22T01:30:02.311Z,49.70
2022-12-22T01:32:47.550Z,52.83
2022-12-22T01:35:42.612Z,49.10
2022-12-22T01:38:27.910Z,50.50
2022-12-22T01:41:14.221Z,53.60
2022-12-22T01:43:59.058Z,47.50
2022-12-22T01:46:59.358Z,51.63
2022-12-22T01:50:10.561Z,57.60
2022-12-22T01:52:55.209Z,51.10
2022-12-22T01:55:43.015Z,48.33
2022-12-22T01:58:38.830Z,48.53
2022-12-22T02:01:23.865Z,45.07
2022-12-22T02:04:08.910Z,51.43
2022-12-22T02:07:00.802Z,50.43
2022-12-22T02:10:16.696Z,44.47
2022-12-22T02:13:26.543Z,52.83
2022-12-22T02:16:31.889Z,49.33
2022-12-22T02:19:26.216Z,50.03
2022-12-22T02:22:29.042Z,50.70
2022-12-22T02:25:22.615Z,57.20
2022-12-22T02:28:09.987Z,56.57
2022-12-22T02:30:55.838Z,53.90
2022-12-22T02:33:41.504Z,55.93
2022-12-22T02:36:39.945Z,50.83
2022-12-22T02:39:38.467Z,67.27
2022-12-22T02:42:35.581Z,59.00
2022-12-22T02:45:45.101Z,55.30
2022-12-22T02:48:35.525Z,50.27
2022-12-22T02:51:27.463Z,55.23
2022-12-22T02:54:14.495Z,66.93
2022-12-22T02:57:00.445Z,61.60
2022-12-22T02:59:45.520Z,72.43
2022-12-22T03:02:32.347Z,58.90
2022-12-22T03:05:17.776Z,55.73
2022-12-22T03:08:07.982Z,66.80
2022-12-22T03:10:55.179Z,77.23
2022-12-22T03:13:40.570Z,54.80
2022-12-22T03:16:25.487Z,61.37
2022-12-22T03:19:11.643Z,64.63
2022-12-22T03:21:57.513Z,60.53
2022-12-22T03:24:42.277Z,56.90
2022-12-22T03:27:08.954Z,48.43
2022-12-22T03:29:35.526Z,57.27
2022-12-22T03:32:02.003Z,58.70
2022-12-22T03:34:28.469Z,61.97
2022-12-22T03:36:54.873Z,57.13
2022-12-22T03:39:21.484Z,54.43
2022-12-22T03:42:06.595Z,56.90
2022-12-22T03:44:51.381Z,53.30
2022-12-22T03:47:17.864Z,53.27
2022-12-22T03:49:44.294Z,53.53
2022-12-22T03:52:10.717Z,58.50
2022-12-22T03:54:37.208Z,53.77
2022-12-22T03:57:03.933Z,53.63
2022-12-22T03:59:31.436Z,64.43
2022-12-22T04:01:57.987Z,62.77
2022-12-22T04:04:26.489Z,58.20
2022-12-22T04:06:54.355Z,52.67
2022-12-22T04:09:22.415Z,53.10
2022-12-22T04:12:07.356Z,57.97
2022-12-22T04:14:34.981Z,67.57
2022-12-22T04:17:05.480Z,54.77
2022-12-22T04:19:32.344Z,57.67
2022-12-22T04:21:59.863Z,44.37
2022-12-22T04:24:26.349Z,60.23
2022-12-22T04:26:52.940Z,49.83
2022-12-22T04:29:19.393Z,51.53
2022-12-22T04:31:45.935Z,50.57
2022-12-22T04:34:12.395Z,56.33
2022-12-22T04:36:38.891Z,58.03
2022-12-22T04:39:05.343Z,59.23
2022-12-22T04:41:31.847Z,64.87
2022-12-22T04:43:58.363Z,57.23
2022-12-22T04:46:24.921Z,47.50
2022-12-22T04:48:56.156Z,48.33
2022-12-22T04:51:25.963Z,47.07
2022-12-22T04:53:52.393Z,45.07
2022-12-22T04:56:18.909Z,48.67
2022-12-22T04:58:45.360Z,49.73
2022-12-22T05:01:17.316Z,43.33
2022-12-22T05:03:43.952Z,38.40
2022-12-22T05:06:11.018Z,46.50
2022-12-22T05:08:37.956Z,39.53
2022-12-22T05:11:04.581Z,48.57
2022-12-22T05:13:32.063Z,43.07
2022-12-22T05:16:12.470Z,37.87
2022-12-22T05:18:40.917Z,42.13
2022-12-22T05:21:11.251Z,40.27
2022-12-22T05:23:37.929Z,32.90
2022-12-22T05:26:04.534Z,33.30
2022-12-22T05:28:32.187Z,36.90
2022-12-22T05:31:07.717Z,40.73
2022-12-22T05:33:34.708Z,37.60
2022-12-22T05:36:01.231Z,28.10
2022-12-22T05:38:27.878Z,30.97
2022-12-22T05:41:01.576Z,37.47
2022-12-22T05:43:30.324Z,31.53
2022-12-22T05:45:58.587Z,30.43
2022-12-22T05:48:30.836Z,30.33
2022-12-22T05:51:00.259Z,21.33
2022-12-22T05:53:26.655Z,23.33
2022-12-22T05:55:53.142Z,26.80
2022-12-22T05:58:19.671Z,27.53
2022-12-22T06:00:46.195Z,26.13
2022-12-22T06:03:12.865Z,23.30
2022-12-22T06:05:39.612Z,25.07
2022-12-22T06:08:06.096Z,24.23
2022-12-22T06:10:32.715Z,21.03
2022-12-22T06:12:59.143Z,19.27
2022-12-22T06:15:25.682Z,21.27
2022-12-22T06:17:52.092Z,21.80
2022-12-22T06:20:18.624Z,17.27
2022-12-22T06:22:45.044Z,18.13
2022-12-22T06:25:17.810Z,21.20
2022-12-22T06:27:44.947Z,15.00
2022-12-22T06:30:11.715Z,12.73
2022-12-22T06:32:39.483Z,15.67
2022-12-22T06:35:07.174Z,13.43
2022-12-22T06:37:33.620Z,12.73
2022-12-22T06:40:00.065Z,10.43
2022-12-22T06:42:44.948Z,7.60
2022-12-22T06:45:11.504Z,8.33
2022-12-22T06:47:37.912Z,3.67
2022-12-22T06:50:04.944Z,8.93
2022-12-22T06:52:31.451Z,9.97
2022-12-22T06:54:57.872Z,7.50
2022-12-22T06:57:24.368Z,6.87
2022-12-22T06:59:57.125Z,6.80
2022-12-22T07:02:24.225Z,9.73
2022-12-22T07:04:50.752Z,8.87
2022-12-22T07:07:17.185Z,5.43
2022-12-22T07:09:43.684Z,6.23
2022-12-22T07:12:10.180Z,6.23
2022-12-22T07:14:36.816Z,5.10
2022-12-22T07:17:03.612Z,5.70
2022-12-22T07:19:30.155Z,10.57
2022-12-22T07:21:57.287Z,11.87
2022-12-22T07:24:26.045Z,8.43
2022-12-22T07:26:52.949Z,3.13
2022-12-22T07:29:19.349Z,5.93
2022-12-22T07:31:46.195Z,3.93
2022-12-22T07:34:13.056Z,3.57
2022-12-22T07:36:39.589Z,11.67
2022-12-22T07:39:06.674Z,4.00
2022-12-22T07:41:52.033Z,8.43
2022-12-22T07:44:18.439Z,5.60
2022-12-22T07:46:45.277Z,5.47
2022-12-22T07:49:30.630Z,7.20
2022-12-22T07:51:58.474Z,6.63
2022-12-22T07:54:26.668Z,5.53
2022-12-22T07:56:54.558Z,5.73
2022-12-22T07:59:21.177Z,4.90
2022-12-22T08:01:47.757Z,6.10
2022-12-22T08:04:15.306Z,3.43
2022-12-22T08:06:41.859Z,6.60
2022-12-22T08:09:09.330Z,6.30
2022-12-22T08:11:35.792Z,3.40
2022-12-22T08:14:02.505Z,4.90
2022-12-22T08:16:29.598Z,4.03
2022-12-22T08:18:56.566Z,7.93
2022-12-22T08:21:23.305Z,6.60
2022-12-22T08:23:49.760Z,4.47
2022-12-22T08:26:20.040Z,4.00
2022-12-22T08:29:02.782Z,6.57
2022-12-22T08:31:30.396Z,6.30
2022-12-22T08:34:02.412Z,10.10
2022-12-22T08:36:31.641Z,6.13
2022-12-22T08:38:58.836Z,7.53
2022-12-22T08:41:43.601Z,6.17
2022-12-22T08:44:10.128Z,5.27
2022-12-22T08:46:36.710Z,4.70
2022-12-22T08:49:03.261Z,7.50
2022-12-22T08:51:29.680Z,4.53
2022-12-22T08:54:05.464Z,6.67
2022-12-22T08:56:32.244Z,6.63
2022-12-22T08:58:58.665Z,3.67
2022-12-22T09:01:25.264Z,8.27
2022-12-22T09:03:53.816Z,7.83
2022-12-22T09:06:26.997Z,5.23
2022-12-22T09:09:02.503Z,5.13
2022-12-22T09:11:29.931Z,4.10
2022-12-22T09:13:58.378Z,5.40
2022-12-22T09:16:27.293Z,5.77
2022-12-22T09:18:55.861Z,3.63
2022-12-22T09:21:24.413Z,2.90
2022-12-22T09:23:51.069Z,4.90
2022-12-22T09:26:20.338Z,3.23
2022-12-22T09:28:50.497Z,5.17
2022-12-22T09:31:19.112Z,5.97
2022-12-22T09:33:45.580Z,12.77
2022-12-22T09:36:18.638Z,11.00
2022-12-22T09:38:45.352Z,4.10
2022-12-22T09:41:26.052Z,5.30
2022-12-22T09:43:52.592Z,4.17
2022-12-22T09:46:23.651Z,5.13
2022-12-22T09:48:50.507Z,6.43
2022-12-22T09:51:24.394Z,8.23
2022-12-22T09:54:11.938Z,6.40
2022-12-22T09:56:38.636Z,5.33
2022-12-22T09:59:11.226Z,5.30
2022-12-22T10:01:56.354Z,5.37
2022-12-22T10:04:36.106Z,5.97
2022-12-22T10:07:08.749Z,9.63
2022-12-22T10:09:49.562Z,7.13
2022-12-22T10:12:20.811Z,3.73
2022-12-22T10:14:50.010Z,5.83
2022-12-22T10:17:25.562Z,2.77
2022-12-22T10:19:56.111Z,5.27
2022-12-22T10:22:26.450Z,7.93
2022-12-22T10:24:53.275Z,5.67
2022-12-22T10:27:28.461Z,8.50
2022-12-22T10:30:23.087Z,4.97
2022-12-22T10:33:12.556Z,4.20
2022-12-22T10:35:50.379Z,4.67
2022-12-22T10:38:30.821Z,6.37
2022-12-22T10:41:02.825Z,7.23
2022-12-22T10:43:40.303Z,11.93
2022-12-22T10:46:07.279Z,12.93
2022-12-22T10:48:36.716Z,3.87
2022-12-22T10:51:08.599Z,10.07
2022-12-22T10:53:56.077Z,7.47
2022-12-22T10:56:28.201Z,9.33
2022-12-22T10:59:01.815Z,9.63
2022-12-22T11:01:32.282Z,5.97
2022-12-22T11:04:16.775Z,6.67
2022-12-22T11:06:44.286Z,11.93
2022-12-22T11:09:32.389Z,9.40
2022-12-22T11:12:37.519Z,5.47
2022-12-22T11:15:30.371Z,6.00
2022-12-22T11:18:20.985Z,8.80
2022-12-22T11:21:07.595Z,6.30
2022-12-22T11:23:42.425Z,9.10
2022-12-22T11:26:41.135Z,6.57
2022-12-22T11:29:40.961Z,10.80
2022-12-22T11:32:38.300Z,5.23
2022-12-22T11:35:16.863Z,11.77
2022-12-22T11:37:54.533Z,10.50
2022-12-22T11:40:27.008Z,10.80
2022-12-22T11:43:09.237Z,14.07
2022-12-22T11:45:52.157Z,14.77
2022-12-22T11:48:33.785Z,12.30
2022-12-22T11:51:12.627Z,13.53
2022-12-22T11:54:11.748Z,12.10
2022-12-22T11:56:42.622Z,15.77
2022-12-22T11:59:43.264Z,16.83
2022-12-22T12:02:30.265Z,22.37
2022-12-22T12:05:19.374Z,14.13
2022-12-22T12:07:51.083Z,16.27
2022-12-22T12:10:26.892Z,16.90
2022-12-22T12:12:59.348Z,17.53
2022-12-22T12:15:32.015Z,12.77
2022-12-22T12:18:04.491Z,13.63
2022-12-22T12:20:43.034Z,15.47
2022-12-22T12:23:48.644Z,13.57
2022-12-22T12:26:44.282Z,16.47
2022-12-22T12:29:16.750Z,14.73
2022-12-22T12:31:52.750Z,14.77
2022-12-22T12:34:21.498Z,11.77
2022-12-22T12:37:12.361Z,13.20
2022-12-22T12:39:50.977Z,12.27
2022-12-22T12:42:29.569Z,15.43
2022-12-22T12:44:56.294Z,14.63
2022-12-22T12:47:49.253Z,10.80
2022-12-22T12:50:35.353Z,16.23
2022-12-22T12:53:08.262Z,14.97
2022-12-22T12:55:40.604Z,18.40
2022-12-22T12:58:12.528Z,17.73
2022-12-22T13:00:46.663Z,21.97
2022-12-22T13:03:52.920Z,16.40
2022-12-22T13:06:49.169Z,14.57
2022-12-22T13:09:49.323Z,21.07
2022-12-22T13:12:37.870Z,16.30
2022-12-22T13:15:04.492Z,16.27
2022-12-22T13:17:49.213Z,19.50
2022-12-22T13:20:24.443Z,21.83
2022-12-22T13:22:56.922Z,19.20
2022-12-22T13:25:27.132Z,19.20
2022-12-22T13:27:56.641Z,26.50
2022-12-22T13:30:23.369Z,20.43
2022-12-22T13:32:50.444Z,20.90
2022-12-22T13:35:32.463Z,23.30
2022-12-22T13:38:00.190Z,24.43
2022-12-22T13:40:32.661Z,24.13
2022-12-22T13:43:09.614Z,25.53
2022-12-22T13:45:39.976Z,24.13
2022-12-22T13:48:12.610Z,20.97
2022-12-22T13:50:45.432Z,20.30
2022-12-22T13:53:50.098Z,19.20
2022-12-22T13:56:16.062Z,20.27
2022-12-22T13:58:45.401Z,21.80
2022-12-22T14:01:11.970Z,27.17
2022-12-22T14:03:59.395Z,22.93
2022-12-22T14:06:33.208Z,25.73
2022-12-22T14:09:22.239Z,21.40
2022-12-22T14:12:06.401Z,25.80
2022-12-22T14:14:41.104Z,21.57
2022-12-22T14:17:28.699Z,26.40
2022-12-22T14:20:00.565Z,27.03
2022-12-22T14:22:26.949Z,26.07
2022-12-22T14:25:01.461Z,23.00
2022-12-22T14:27:37.444Z,28.37
2022-12-22T14:30:07.408Z,26.03
2022-12-22T14:32:54.465Z,27.13
2022-12-22T14:35:21.702Z,27.00
2022-12-22T14:37:52.457Z,33.27
2022-12-22T14:40:30.357Z,31.87
2022-12-22T14:42:59.247Z,33.00
2022-12-22T14:45:26.275Z,26.40
2022-12-22T14:47:55.445Z,30.57
2022-12-22T14:50:25.074Z,38.73
2022-12-22T14:52:57.060Z,29.10
2022-12-22T14:55:28.453Z,25.70
2022-12-22T14:57:56.849Z,28.43
2022-12-22T15:00:23.362Z,29.10
2022-12-22T15:02:54.481Z,33.93
2022-12-22T15:05:37.505Z,29.23
2022-12-22T15:08:08.380Z,28.57
2022-12-22T15:10:39.849Z,28.30
2022-12-22T15:13:12.401Z,31.70
2022-12-22T15:15:39.000Z,32.83
2022-12-22T15:18:05.746Z,33.83
2022-12-22T15:20:39.056Z,30.90
2022-12-22T15:23:16.837Z,34.33
2022-12-22T15:25:45.988Z,28.53
2022-12-22T15:28:13.282Z,35.23
2022-12-22T15:30:40.940Z,32.20
2022-12-22T15:33:14.266Z,35.93
2022-12-22T15:35:41.735Z,29.00
2022-12-22T15:38:38.766Z,37.77
2022-12-22T15:41:06.340Z,33.70
2022-12-22T15:46:22.091Z,39.10
2022-12-22T15:48:48.769Z,39.93
2022-12-22T15:51:26.565Z,37.97
2022-12-22T15:53:55.082Z,33.53
2022-12-22T15:56:24.988Z,42.23
2022-12-22T15:58:52.071Z,41.30
2022-12-22T16:01:18.617Z,36.93
2022-12-22T16:03:45.195Z,36.07
2022-12-22T16:06:16.810Z,38.90
2022-12-22T16:08:49.496Z,32.33
2022-12-22T16:11:16.303Z,43.23
2022-12-22T16:13:42.872Z,38.03
2022-12-22T16:16:09.422Z,35.80
2022-12-22T16:18:35.907Z,37.23
2022-12-22T16:21:07.929Z,38.97
2022-12-22T16:23:36.767Z,40.07
2022-12-22T16:26:04.897Z,39.93
2022-12-22T16:28:33.153Z,37.53
2022-12-22T16:31:00.802Z,38.20
2022-12-22T16:33:27.418Z,38.20
2022-12-22T16:35:53.844Z,38.17
2022-12-22T16:38:20.407Z,41.73
2022-12-22T16:40:50.454Z,38.07
2022-12-22T16:46:16.674Z,36.33
2022-12-22T16:48:46.724Z,31.13
2022-12-22T16:51:25.243Z,32.93
2022-12-22T16:53:51.715Z,33.43
2022-12-22T16:56:21.707Z,34.90
2022-12-22T16:58:48.895Z,35.13
2022-12-22T17:01:26.009Z,30.43
2022-12-22T17:03:53.082Z,32.30
2022-12-22T17:06:19.613Z,32.33
2022-12-22T17:08:46.733Z,29.87
2022-12-22T17:11:20.935Z,31.53
2022-12-22T17:13:48.150Z,33.70
2022-12-22T17:16:20.984Z,32.00
2022-12-22T17:18:47.773Z,31.47
2022-12-22T17:21:17.198Z,30.97
2022-12-22T17:23:48.431Z,30.67
2022-12-22T17:26:19.552Z,28.93
2022-12-22T17:28:47.170Z,29.90
2022-12-22T17:31:21.111Z,25.17
2022-12-22T17:33:48.240Z,27.83
2022-12-22T17:36:37.230Z,26.50
2022-12-22T17:39:04.690Z,27.40
2022-12-22T17:41:31.545Z,27.63
2022-12-22T17:43:57.941Z,28.33
2022-12-22T17:46:24.469Z,28.57
2022-12-22T17:48:51.211Z,27.90
2022-12-22T17:51:27.191Z,25.20
2022-12-22T17:53:56.556Z,28.97
2022-12-22T17:56:27.118Z,26.20
2022-12-22T17:58:53.745Z,25.13
2022-12-22T18:01:27.409Z,24.33
2022-12-22T18:03:54.624Z,22.50
2022-12-22T18:06:25.236Z,28.43
2022-12-22T18:08:53.631Z,24.30
2022-12-22T18:11:20.936Z,24.57
2022-12-22T18:13:47.791Z,25.73
2022-12-22T18:16:17.530Z,22.00
2022-12-22T18:18:44.446Z,29.70
2022-12-22T18:21:16.327Z,23.23
2022-12-22T18:23:49.847Z,25.70
2022-12-22T18:26:28.982Z,27.87
2022-12-22T18:28:56.437Z,23.87
2022-12-22T18:31:23.983Z,24.37
2022-12-22T18:33:52.027Z,25.17
2022-12-22T18:36:30.643Z,22.73
2022-12-22T18:38:59.188Z,22.77
2022-12-22T18:41:27.190Z,22.80
2022-12-22T18:43:53.878Z,21.70
2022-12-22T18:46:20.483Z,22.07
2022-12-22T18:48:48.637Z,22.07
2022-12-22T18:51:20.793Z,21.60
2022-12-22T18:53:48.464Z,17.37
2022-12-22T18:56:14.923Z,15.50
2022-12-22T18:58:44.206Z,12.07
2022-12-22T19:01:23.170Z,13.90
2022-12-22T19:03:53.912Z,15.33
2022-12-22T19:06:22.115Z,14.90
2022-12-22T19:08:49.347Z,27.97
2022-12-22T19:11:18.479Z,14.77
2022-12-22T19:13:51.938Z,14.53
2022-12-22T19:16:23.102Z,27.77
2022-12-22T19:18:49.885Z,21.50
2022-12-22T19:21:18.296Z,23.50
2022-12-22T19:23:45.270Z,14.33
2022-12-22T19:26:22.936Z,14.50
2022-12-22T19:28:52.327Z,14.83
2022-12-22T19:31:24.726Z,18.67
2022-12-22T19:33:52.339Z,27.77
2022-12-22T19:36:22.137Z,19.73
2022-12-22T19:38:51.080Z,27.20
2022-12-22T19:41:31.967Z,15.50
2022-12-22T19:43:58.677Z,28.30
2022-12-22T19:46:28.811Z,19.23
2022-12-22T19:48:56.966Z,26.27
2022-12-22T19:51:23.408Z,17.10
2022-12-22T19:53:49.894Z,18.03
2022-12-22T19:56:26.918Z,19.07
2022-12-22T19:58:54.748Z,18.73
2022-12-22T20:01:21.284Z,21.37
2022-12-22T20:03:47.954Z,22.60
2022-12-22T20:06:14.838Z,22.03
2022-12-22T20:08:41.271Z,17.03
2022-12-22T20:11:14.478Z,25.10
2022-12-22T20:13:42.038Z,14.70
2022-12-22T20:16:12.810Z,19.87
2022-12-22T20:18:39.322Z,23.00
2022-12-22T20:21:10.804Z,16.43
2022-12-22T20:23:38.057Z,21.57
2022-12-22T20:26:13.859Z,14.13
2022-12-22T20:28:40.663Z,19.63
2022-12-22T20:31:10.724Z,18.73
2022-12-22T20:33:37.352Z,13.67
2022-12-22T20:36:11.939Z,15.13
2022-12-22T20:38:40.422Z,15.67
2022-12-22T20:41:09.253Z,12.27
2022-12-22T20:43:36.740Z,13.83
2022-12-22T20:46:35.331Z,12.27
2022-12-22T20:49:03.125Z,14.00
2022-12-22T20:51:32.715Z,11.07
2022-12-22T20:54:00.028Z,17.13
2022-12-22T20:56:29.866Z,14.87
2022-12-22T20:58:58.389Z,15.33
2022-12-22T21:01:25.153Z,14.97
2022-12-22T21:03:52.196Z,15.67
2022-12-22T21:06:24.755Z,14.03
2022-12-22T21:08:52.804Z,15.70
2022-12-22T21:11:19.301Z,14.47
2022-12-22T21:13:45.838Z,14.63
2022-12-22T21:16:16.275Z,11.57
2022-12-22T21:18:43.195Z,12.37
2022-12-22T21:21:11.481Z,10.27
2022-12-22T21:23:38.431Z,8.67
2022-12-22T21:26:10.734Z,13.47
2022-12-22T21:28:38.702Z,17.47
2022-12-22T21:31:05.698Z,14.80
2022-12-22T21:33:32.173Z,11.93
2022-12-22T21:36:02.058Z,11.67
2022-12-22T21:38:31.323Z,12.53
2022-12-22T21:40:58.665Z,13.10
2022-12-22T21:43:25.398Z,11.87
2022-12-22T21:45:52.212Z,9.70
2022-12-22T21:48:20.567Z,11.63
2022-12-22T21:50:50.164Z,14.03
2022-12-22T21:53:22.293Z,12.33
2022-12-22T21:55:49.348Z,12.40
2022-12-22T21:58:15.997Z,8.73
2022-12-22T22:00:47.132Z,10.77
2022-12-22T22:03:15.359Z,8.60
2022-12-22T22:05:43.694Z,10.93
2022-12-22T22:08:12.418Z,12.13
2022-12-22T22:10:41.697Z,17.97
2022-12-22T22:13:10.801Z,17.40
2022-12-22T22:15:37.282Z,13.47
2022-12-22T22:18:07.286Z,9.90
2022-12-22T22:20:34.569Z,8.33
2022-12-22T22:23:01.188Z,10.93
2022-12-22T22:25:27.897Z,9.60
2022-12-22T22:27:59.370Z,13.90
2022-12-22T22:30:27.026Z,15.30
2022-12-22T22:32:54.967Z,15.57
2022-12-22T22:35:22.085Z,8.63
2022-12-22T22:37:52.253Z,13.47
2022-12-22T22:40:21.538Z,10.97
2022-12-22T22:42:48.111Z,10.63
2022-12-22T22:45:17.023Z,10.53
2022-12-22T22:47:43.421Z,10.27
2022-12-22T22:50:10.150Z,9.87
2022-12-22T22:52:37.081Z,20.50
2022-12-22T22:55:03.902Z,19.83
2022-12-22T22:57:30.411Z,10.47
2022-12-22T22:59:56.841Z,18.23
2022-12-22T23:02:23.482Z,11.33
2022-12-22T23:04:49.984Z,22.97
2022-12-22T23:07:16.507Z,26.27
2022-12-22T23:09:42.980Z,10.67
2022-12-22T23:12:09.358Z,12.20
2022-12-22T23:14:35.792Z,25.73
2022-12-22T23:17:02.337Z,19.57
2022-12-22T23:19:28.769Z,12.70
2022-12-22T23:21:55.523Z,15.53
2022-12-22T23:24:21.942Z,17.10
2022-12-22T23:26:48.808Z,13.03
2022-12-22T23:29:15.469Z,18.80
2022-12-22T23:31:41.955Z,13.70
2022-12-22T23:34:10.878Z,18.07
2022-12-22T23:36:37.644Z,19.73
2022-12-22T23:39:04.182Z,19.27
2022-12-22T23:41:31.786Z,14.77
2022-12-22T23:43:58.268Z,15.23
2022-12-22T23:46:24.832Z,19.60
2022-12-22T23:48:53.038Z,20.73
2022-12-22T23:51:23.949Z,14.93
2022-12-22T23:53:50.618Z,11.77
2022-12-22T23:56:17.026Z,14.93
2022-12-22T23:58:43.625Z,16.27
